Time;durP1;ratioP1;P1;durP2;ratioP2;P2;SDS_P1;SDS_P2;PMS_P1;PMS_P2;Temp;Humidity;BMP_temperature;BMP_pressure;BME280_temperature;BME280_humidity;BME280_pressure;Samples;Min_cycle;Max_cycle;Signal;HPM_P1;HPM_P2
2022/01/04 00:01:38;;;;;;;1.33;0.90;;;11.00;99.90;;;;;;5047849;28;20451;-82
2022/01/04 00:04:06;;;;;;;2.10;0.50;;;10.90;99.90;;;;;;5050836;28;20479;-83
2022/01/04 00:06:34;;;;;;;0.50;0.50;;;10.90;99.90;;;;;;5052861;28;20539;-82
2022/01/04 00:09:07;;;;;;;0.53;0.53;;;11.00;99.90;;;;;;5059619;28;20451;-83
2022/01/04 00:11:56;;;;;;;0.63;0.60;;;11.00;99.90;;;;;;5061782;28;21014;-82
2022/01/04 00:14:26;;;;;;;0.50;0.50;;;11.10;1.00;;;;;;5071580;28;20462;-82
2022/01/04 00:16:55;;;;;;;0.70;0.70;;;11.10;1.00;;;;;;5068025;28;20836;-82
2022/01/04 00:19:24;;;;;;;0.50;0.50;;;11.10;1.00;;;;;;5063842;28;20941;-83
2022/01/04 00:21:54;;;;;;;0.80;0.60;;;11.10;1.00;;;;;;5065826;28;20812;-83
2022/01/04 00:24:23;;;;;;;0.67;0.50;;;11.10;99.90;;;;;;5064978;28;21017;-82
2022/01/04 00:26:51;;;;;;;1.07;0.50;;;11.10;1.00;;;;;;5057786;28;20458;-84
2022/01/04 00:29:19;;;;;;;1.00;0.60;;;11.20;99.90;;;;;;5059527;28;20537;-83
2022/01/04 00:31:49;;;;;;;0.70;0.70;;;11.10;99.90;;;;;;5052476;28;20470;-81
2022/01/04 00:34:17;;;;;;;0.70;0.70;;;11.00;1.00;;;;;;5052908;28;20447;-83
2022/01/04 00:36:45;;;;;;;1.07;0.53;;;11.00;1.00;;;;;;5058180;28;20874;-82
2022/01/04 00:39:14;;;;;;;0.60;0.60;;;11.00;1.00;;;;;;5060040;28;20462;-83
2022/01/04 00:41:42;;;;;;;0.50;0.50;;;11.10;1.00;;;;;;5050894;28;20874;-82
2022/01/04 00:44:10;;;;;;;0.93;0.70;;;11.10;20.40;;;;;;5052574;28;20466;-83
2022/01/04 00:46:38;;;;;;;0.90;0.77;;;11.10;26.90;;;;;;5052859;28;20459;-83
2022/01/04 00:49:10;;;;;;;1.23;0.60;;;11.30;99.90;;;;;;5051447;28;20439;-83
2022/01/04 00:51:39;;;;;;;0.87;0.73;;;11.20;1.00;;;;;;5052306;28;20473;-83
2022/01/04 00:54:08;;;;;;;1.50;0.53;;;11.20;1.00;;;;;;5052398;28;20463;-82
2022/01/04 00:56:37;;;;;;;0.60;0.60;;;11.20;1.00;;;;;;5052538;28;21001;-83
2022/01/04 00:59:06;;;;;;;0.80;0.63;;;11.20;1.00;;;;;;5062509;28;20454;-83
2022/01/04 01:01:34;;;;;;;1.13;1.00;;;11.10;99.90;;;;;;5069688;28;20465;-82
2022/01/04 01:04:03;;;;;;;0.60;0.60;;;11.10;1.00;;;;;;5061124;28;20554;-83
2022/01/04 01:06:33;;;;;;;0.67;0.67;;;11.10;1.00;;;;;;5057249;28;20463;-83
2022/01/04 01:09:01;;;;;;;0.60;0.60;;;11.20;99.90;;;;;;5051617;28;20458;-82
2022/01/04 01:11:30;;;;;;;1.43;0.50;;;11.20;99.90;;;;;;5056577;28;20461;-82
2022/01/04 01:13:58;;;;;;;0.60;0.60;;;11.10;1.00;;;;;;5070384;28;20560;-83
2022/01/04 01:16:26;;;;;;;0.70;0.60;;;11.00;1.00;;;;;;5069774;28;20459;-82
2022/01/04 01:18:55;;;;;;;1.10;0.77;;;10.90;1.00;;;;;;5063607;28;20498;-83
2022/01/04 01:21:23;;;;;;;1.70;0.70;;;10.90;59.80;;;;;;5070478;28;20468;-82
2022/01/04 01:23:53;;;;;;;0.87;0.67;;;10.90;99.90;;;;;;5058401;28;20881;-83
2022/01/04 01:26:21;;;;;;;2.33;0.90;;;11.00;1.00;;;;;;5059301;28;20450;-83
2022/01/04 01:28:50;;;;;;;2.23;0.70;;;11.10;1.00;;;;;;5067580;28;20476;-83
2022/01/04 01:31:18;;;;;;;2.00;0.80;;;11.10;23.40;;;;;;5051305;28;20456;-83
2022/01/04 01:33:46;;;;;;;0.90;0.67;;;11.20;99.90;;;;;;5051294;28;20463;-82
2022/01/04 01:36:14;;;;;;;0.70;0.70;;;11.10;33.10;;;;;;5055251;28;20867;-83
2022/01/04 01:38:45;;;;;;;0.70;0.70;;;11.00;99.90;;;;;;5062846;28;20996;-83
2022/01/04 01:41:14;;;;;;;3.37;0.70;;;11.10;99.90;;;;;;5066458;28;21007;-83
2022/01/04 01:43:42;;;;;;;0.70;0.70;;;11.10;99.90;;;;;;5063831;28;20482;-81
2022/01/04 01:46:11;;;;;;;0.73;0.73;;;11.00;99.90;;;;;;5052451;28;20947;-83
2022/01/04 01:48:39;;;;;;;0.70;0.70;;;11.10;1.00;;;;;;5049365;28;20482;-83
2022/01/04 01:51:07;;;;;;;0.77;0.77;;;11.00;99.90;;;;;;5070080;28;20461;-83
2022/01/04 01:53:36;;;;;;;0.77;0.77;;;11.00;1.00;;;;;;5070962;28;20907;-83
2022/01/04 01:56:05;;;;;;;0.90;0.90;;;10.80;1.00;;;;;;5052569;28;20462;-83
2022/01/04 01:58:34;;;;;;;0.80;0.80;;;11.00;99.90;;;;;;5050379;28;20558;-83
2022/01/04 02:01:03;;;;;;;1.63;0.90;;;11.10;1.00;;;;;;5051164;28;20471;-83
2022/01/04 02:03:32;;;;;;;0.73;0.73;;;11.20;99.90;;;;;;5051859;28;20509;-83
2022/01/04 02:06:00;;;;;;;2.10;0.90;;;11.10;99.90;;;;;;5050979;28;20970;-83
2022/01/04 02:08:30;;;;;;;3.27;1.00;;;11.00;1.00;;;;;;5053115;28;20459;-82
2022/01/04 02:10:59;;;;;;;1.03;0.80;;;11.00;1.00;;;;;;5059981;28;20455;-83
2022/01/04 02:13:28;;;;;;;0.80;0.80;;;11.10;1.00;;;;;;5053931;28;20467;-83
2022/01/04 02:15:57;;;;;;;1.30;1.20;;;11.10;99.90;;;;;;5047591;28;20955;-83
2022/01/04 02:18:26;;;;;;;0.80;0.70;;;11.20;99.90;;;;;;5063267;28;20494;-83
2022/01/04 02:20:55;;;;;;;0.93;0.83;;;11.30;99.90;;;;;;5061554;28;20456;-82
2022/01/04 02:23:24;;;;;;;1.03;0.80;;;11.20;94.90;;;;;;5063833;28;20998;-83
2022/01/04 02:25:53;;;;;;;1.00;0.90;;;11.10;1.00;;;;;;5051284;28;20452;-83
2022/01/04 02:28:21;;;;;;;1.20;0.80;;;11.10;1.00;;;;;;5065585;28;20457;-82
2022/01/04 02:30:50;;;;;;;0.60;0.60;;;11.10;1.00;;;;;;5062026;28;20473;-83
2022/01/04 02:33:18;;;;;;;1.87;0.97;;;11.20;1.00;;;;;;5052672;28;20479;-84
2022/01/04 02:35:46;;;;;;;1.10;0.90;;;11.10;99.90;;;;;;5050494;28;20458;-83
2022/01/04 02:38:16;;;;;;;4.80;0.80;;;11.10;99.90;;;;;;5063585;28;20475;-83
2022/01/04 02:40:45;;;;;;;0.97;0.97;;;11.20;1.00;;;;;;5062004;28;20469;-84
2022/01/04 02:43:13;;;;;;;2.40;1.00;;;11.30;99.90;;;;;;5051804;28;20850;-83
2022/01/04 02:45:41;;;;;;;1.17;0.80;;;11.20;99.90;;;;;;5050865;28;20485;-82
2022/01/04 02:48:10;;;;;;;1.00;0.90;;;11.10;99.90;;;;;;5049800;28;20463;-82
2022/01/04 02:50:38;;;;;;;1.07;0.80;;;11.30;99.90;;;;;;5050286;28;20476;-83
2022/01/04 02:53:06;;;;;;;0.80;0.80;;;11.30;1.00;;;;;;5050312;28;21011;-83
2022/01/04 02:55:36;;;;;;;2.20;0.83;;;11.40;1.00;;;;;;5062217;28;20445;-83
2022/01/04 02:58:04;;;;;;;1.43;1.00;;;11.40;1.00;;;;;;5064426;28;21171;-83
2022/01/04 03:00:32;;;;;;;1.33;0.80;;;11.30;1.00;;;;;;5062424;28;20477;-83
2022/01/04 03:03:01;;;;;;;0.70;0.70;;;11.20;12.60;;;;;;5070578;28;20478;-84
2022/01/04 03:05:29;;;;;;;0.80;0.80;;;11.10;99.90;;;;;;5057460;28;20481;-83
2022/01/04 03:07:57;;;;;;;1.10;0.70;;;11.10;99.90;;;;;;5049799;28;20527;-83
2022/01/04 03:10:26;;;;;;;1.73;0.70;;;11.20;1.00;;;;;;5051595;28;20451;-82
2022/01/04 03:12:57;;;;;;;1.10;1.00;;;11.30;1.00;;;;;;5051823;28;20474;-83
2022/01/04 03:15:25;;;;;;;2.20;1.40;;;11.20;85.30;;;;;;5049388;28;20453;-83
2022/01/04 03:17:53;;;;;;;0.80;0.80;;;11.20;1.00;;;;;;5061933;28;21327;-83
2022/01/04 03:20:21;;;;;;;0.80;0.80;;;11.30;1.00;;;;;;5056495;28;20457;-84
2022/01/04 03:22:49;;;;;;;1.00;0.90;;;11.20;50.40;;;;;;5069059;28;20502;-83
2022/01/04 03:25:18;;;;;;;1.30;0.63;;;11.30;1.00;;;;;;5050601;28;20469;-83
2022/01/04 03:27:46;;;;;;;0.90;0.70;;;11.30;99.90;;;;;;5052479;28;20464;-84
2022/01/04 03:30:15;;;;;;;1.60;0.70;;;11.40;1.00;;;;;;5063303;28;20521;-83
2022/01/04 03:32:44;;;;;;;1.07;0.70;;;11.40;1.00;;;;;;5050060;28;21246;-83
2022/01/04 03:35:14;;;;;;;0.60;0.60;;;11.50;99.90;;;;;;5055663;28;20465;-83
2022/01/04 03:37:42;;;;;;;0.70;0.60;;;11.30;1.00;;;;;;5056053;28;20444;-83
2022/01/04 03:40:11;;;;;;;1.63;1.27;;;11.20;99.90;;;;;;5066852;28;20459;-83
2022/01/04 03:42:40;;;;;;;0.73;0.73;;;11.30;99.90;;;;;;5054308;28;20475;-83
2022/01/04 03:45:09;;;;;;;1.00;0.80;;;11.30;99.90;;;;;;5054103;28;20451;-82
2022/01/04 03:47:38;;;;;;;1.90;0.50;;;11.30;99.90;;;;;;5053175;28;20459;-82
2022/01/04 03:50:08;;;;;;;1.00;0.60;;;11.40;1.00;;;;;;5052345;28;20871;-83
2022/01/04 03:52:36;;;;;;;1.63;0.90;;;11.40;1.00;;;;;;5053403;28;20507;-84
2022/01/04 03:55:05;;;;;;;0.87;0.60;;;11.40;1.00;;;;;;5053867;28;20447;-84
2022/01/04 03:57:34;;;;;;;1.63;0.60;;;11.40;72.40;;;;;;5072364;28;20467;-83
2022/01/04 04:00:02;;;;;;;0.80;0.70;;;11.30;99.90;;;;;;5073655;28;20481;-83
2022/01/04 04:02:30;;;;;;;0.97;0.60;;;11.20;1.00;;;;;;5054573;28;20467;-84
2022/01/04 04:05:00;;;;;;;0.60;0.60;;;11.30;99.90;;;;;;5053618;28;20534;-84
2022/01/04 04:07:33;;;;;;;0.73;0.57;;;11.40;1.00;;;;;;5052787;28;20466;-83
2022/01/04 04:10:01;;;;;;;0.60;0.60;;;11.40;1.00;;;;;;5056287;28;20435;-84
2022/01/04 04:12:29;;;;;;;0.90;0.70;;;11.30;75.90;;;;;;5064022;28;20488;-83
2022/01/04 04:14:58;;;;;;;0.80;0.57;;;11.30;99.90;;;;;;5068577;28;20461;-83
2022/01/04 04:17:27;;;;;;;1.27;0.60;;;11.30;1.00;;;;;;5060399;28;20451;-82
2022/01/04 04:19:55;;;;;;;1.43;0.50;;;11.30;1.00;;;;;;5068957;28;20869;-84
2022/01/04 04:22:24;;;;;;;0.60;0.60;;;11.40;99.90;;;;;;5060541;28;20552;-83
2022/01/04 04:24:53;;;;;;;1.50;0.60;;;11.40;1.00;;;;;;5053009;28;20459;-83
2022/01/04 04:27:21;;;;;;;1.17;0.50;;;11.50;1.00;;;;;;5077822;28;20506;-83
2022/01/04 04:29:49;;;;;;;0.70;0.60;;;11.30;99.90;;;;;;5075612;28;20443;-84
2022/01/04 04:32:17;;;;;;;0.60;0.60;;;11.30;99.90;;;;;;5072938;28;20525;-83
2022/01/04 04:34:45;;;;;;;0.60;0.60;;;11.20;1.00;;;;;;5069393;28;20448;-84
2022/01/04 04:37:13;;;;;;;0.63;0.63;;;11.40;99.90;;;;;;5063259;28;20451;-84
2022/01/04 04:39:43;;;;;;;0.60;0.60;;;11.60;1.00;;;;;;5068778;28;20528;-84
2022/01/04 04:42:11;;;;;;;0.70;0.50;;;11.50;1.00;;;;;;5054019;28;20466;-83
2022/01/04 04:44:39;;;;;;;0.60;0.60;;;11.40;1.00;;;;;;5055464;28;20471;-83
2022/01/04 04:47:08;;;;;;;0.87;0.67;;;11.40;1.00;;;;;;5051372;28;20890;-84
2022/01/04 04:49:36;;;;;;;0.60;0.60;;;11.30;99.90;;;;;;5051707;28;20459;-83
2022/01/04 04:52:05;;;;;;;1.27;0.60;;;11.30;1.00;;;;;;5052794;28;20450;-84
2022/01/04 04:54:33;;;;;;;1.37;0.60;;;11.20;1.00;;;;;;5065064;28;20462;-83
2022/01/04 04:57:03;;;;;;;0.50;0.50;;;11.20;99.90;;;;;;5062581;28;20455;-83
2022/01/04 04:59:31;;;;;;;0.77;0.60;;;11.20;91.40;;;;;;5054339;28;20501;-84
2022/01/04 05:02:01;;;;;;;1.57;0.60;;;11.20;99.90;;;;;;5052585;28;20463;-84
2022/01/04 05:04:30;;;;;;;1.03;0.93;;;11.20;1.00;;;;;;5057124;28;21020;-84
2022/01/04 05:06:58;;;;;;;0.60;0.60;;;11.40;1.00;;;;;;5067339;28;20913;-84
2022/01/04 05:09:26;;;;;;;0.67;0.67;;;11.30;99.90;;;;;;5064076;28;20927;-83
2022/01/04 05:11:54;;;;;;;0.63;0.63;;;11.10;33.30;;;;;;5051224;28;20455;-83
2022/01/04 05:14:24;;;;;;;0.87;0.67;;;11.20;1.00;;;;;;5058433;28;20523;-83
2022/01/04 05:16:52;;;;;;;0.70;0.57;;;11.10;99.90;;;;;;5058755;28;20455;-83
2022/01/04 05:19:20;;;;;;;0.57;0.57;;;11.20;23.80;;;;;;5063110;28;20486;-84
2022/01/04 05:21:49;;;;;;;0.80;0.53;;;11.30;1.00;;;;;;5065893;28;20459;-83
2022/01/04 05:24:17;;;;;;;0.80;0.80;;;11.20;99.90;;;;;;5056507;28;20815;-85
2022/01/04 05:26:45;;;;;;;0.70;0.60;;;11.10;99.90;;;;;;5065078;28;20856;-83
2022/01/04 05:29:13;;;;;;;0.80;0.60;;;11.10;99.90;;;;;;5074737;28;20472;-82
2022/01/04 05:31:43;;;;;;;0.40;0.40;;;11.10;99.90;;;;;;5063520;28;20435;-83
2022/01/04 05:34:11;;;;;;;0.60;0.60;;;11.00;99.90;;;;;;5051897;28;20562;-83
2022/01/04 05:36:39;;;;;;;0.90;0.90;;;11.10;1.00;;;;;;5052577;28;20451;-83
2022/01/04 05:39:08;;;;;;;0.80;0.50;;;11.10;99.90;;;;;;5053666;28;20563;-83
2022/01/04 05:41:36;;;;;;;1.83;0.60;;;11.10;1.00;;;;;;5066193;28;20556;-83
2022/01/04 05:44:04;;;;;;;1.20;0.50;;;10.90;1.00;;;;;;5050566;28;20479;-84
2022/01/04 05:46:33;;;;;;;0.57;0.50;;;10.80;1.00;;;;;;5051994;28;20460;-84
2022/01/04 05:49:03;;;;;;;0.73;0.70;;;10.80;1.00;;;;;;5050731;28;20447;-82
2022/01/04 05:51:31;;;;;;;0.67;0.67;;;10.80;1.00;;;;;;5064493;28;20458;-84
2022/01/04 05:54:00;;;;;;;0.77;0.70;;;11.00;1.00;;;;;;5069691;28;20485;-83
2022/01/04 05:56:28;;;;;;;0.53;0.50;;;10.80;1.00;;;;;;5051412;28;20451;-83
2022/01/04 05:58:56;;;;;;;0.93;0.50;;;10.90;1.00;;;;;;5052874;28;20458;-84
2022/01/04 06:01:24;;;;;;;0.70;0.70;;;11.00;1.00;;;;;;5070788;28;20462;-83
2022/01/04 06:03:52;;;;;;;0.90;0.50;;;11.10;1.00;;;;;;5055597;28;20879;-83
2022/01/04 06:06:22;;;;;;;2.53;0.60;;;11.10;1.00;;;;;;5051257;28;20862;-83
2022/01/04 06:08:51;;;;;;;0.60;0.60;;;11.00;1.00;;;;;;5063444;28;20463;-84
2022/01/04 06:11:32;;;;;;;0.80;0.70;;;11.00;1.00;;;;;;5060757;28;20447;-84
2022/01/04 06:16:44;;;;;;;0.60;0.60;;;11.10;1.00;;;;;;5039222;28;20456;-82
2022/01/04 06:19:12;;;;;;;0.50;0.50;;;11.00;1.00;;;;;;5051065;28;20465;-83
2022/01/04 06:21:42;;;;;;;0.60;0.60;;;10.90;1.00;;;;;;5064247;28;20449;-83
2022/01/04 06:24:10;;;;;;;0.70;0.70;;;10.90;1.00;;;;;;5054066;28;21016;-84
2022/01/04 06:26:38;;;;;;;0.60;0.60;;;10.80;1.00;;;;;;5065309;28;20458;-84
2022/01/04 06:29:07;;;;;;;0.70;0.60;;;10.90;1.00;;;;;;5050631;28;20456;-83
2022/01/04 06:31:35;;;;;;;2.23;0.73;;;10.90;1.00;;;;;;5051253;28;20473;-82
2022/01/04 06:34:04;;;;;;;0.63;0.63;;;11.00;1.00;;;;;;5050866;28;20467;-83
2022/01/04 06:36:32;;;;;;;1.23;0.53;;;10.90;1.00;;;;;;5050672;28;20461;-83
2022/01/04 06:39:02;;;;;;;1.93;0.63;;;11.10;1.00;;;;;;5050300;28;20488;-83
2022/01/04 06:41:30;;;;;;;0.63;0.63;;;11.20;1.00;;;;;;5054482;28;20575;-83
2022/01/04 06:43:59;;;;;;;0.60;0.60;;;11.20;1.00;;;;;;5050652;28;20485;-83
2022/01/04 06:46:28;;;;;;;0.80;0.60;;;11.00;1.00;;;;;;5050494;28;20451;-83
2022/01/04 06:48:56;;;;;;;0.60;0.60;;;11.10;1.00;;;;;;5049831;28;20440;-82
2022/01/04 06:51:24;;;;;;;0.50;0.50;;;11.30;1.00;;;;;;5050775;28;20474;-84
2022/01/04 06:53:52;;;;;;;2.00;1.13;;;11.40;1.00;;;;;;5054287;28;21005;-84
2022/01/04 06:56:23;;;;;;;0.60;0.60;;;11.30;1.00;;;;;;5070798;28;20447;-83
2022/01/04 06:58:51;;;;;;;0.60;0.60;;;11.30;1.00;;;;;;5065948;28;20454;-83
2022/01/04 07:01:19;;;;;;;0.50;0.50;;;11.20;1.00;;;;;;5070186;28;20936;-83
2022/01/04 07:03:48;;;;;;;0.73;0.60;;;11.20;1.00;;;;;;5065123;28;21019;-83
2022/01/04 07:06:16;;;;;;;0.43;0.43;;;11.10;1.00;;;;;;5050357;28;20458;-83
2022/01/04 07:08:44;;;;;;;1.03;0.50;;;11.10;1.00;;;;;;5053341;28;20464;-82
2022/01/04 07:11:13;;;;;;;0.50;0.50;;;11.10;9.70;;;;;;5070616;28;20476;-83
2022/01/04 07:13:43;;;;;;;0.57;0.50;;;11.10;14.40;;;;;;5069392;28;20862;-84
2022/01/04 07:16:12;;;;;;;0.93;0.50;;;11.00;19.20;;;;;;5059724;28;20460;-83
2022/01/04 07:18:40;;;;;;;0.57;0.57;;;11.10;16.20;;;;;;5053860;28;20443;-83
2022/01/04 07:21:08;;;;;;;0.97;0.50;;;11.20;6.90;;;;;;5070123;28;20546;-83
2022/01/04 07:23:36;;;;;;;0.70;0.60;;;11.30;1.00;;;;;;5054623;28;20772;-83
2022/01/04 07:26:05;;;;;;;0.60;0.60;;;11.20;7.60;;;;;;5070635;28;20466;-84
2022/01/04 07:28:33;;;;;;;0.60;0.60;;;11.30;7.50;;;;;;5069040;28;20466;-83
2022/01/04 07:31:12;;;;;;;0.60;0.60;;;11.30;5.70;;;;;;5058246;28;20494;-83
2022/01/04 07:33:41;;;;;;;0.40;0.40;;;11.50;1.00;;;;;;5051627;28;20475;-83
2022/01/04 07:36:09;;;;;;;0.50;0.50;;;11.50;1.00;;;;;;5057641;28;20513;-84
2022/01/04 07:38:38;;;;;;;0.50;0.50;;;11.50;1.00;;;;;;5068527;28;20443;-83
2022/01/04 07:41:07;;;;;;;0.43;0.43;;;11.50;1.00;;;;;;5060152;28;20522;-83
2022/01/04 07:43:35;;;;;;;0.77;0.77;;;11.60;1.00;;;;;;5050617;28;20510;-84
2022/01/04 07:46:04;;;;;;;0.60;0.60;;;11.70;1.00;;;;;;5050125;28;20455;-84
2022/01/04 07:48:34;;;;;;;0.50;0.50;;;11.80;1.00;;;;;;5069950;28;20873;-83
2022/01/04 07:51:02;;;;;;;1.83;0.70;;;11.80;1.00;;;;;;5069103;28;20477;-83
2022/01/04 07:53:31;;;;;;;0.53;0.40;;;11.90;1.00;;;;;;5070085;28;20525;-84
2022/01/04 07:55:59;;;;;;;0.60;0.60;;;11.90;1.00;;;;;;5057290;28;20978;-84
2022/01/04 07:58:29;;;;;;;0.90;0.60;;;11.90;1.00;;;;;;5049284;28;20457;-84
2022/01/04 08:00:57;;;;;;;0.83;0.60;;;12.00;1.00;;;;;;5049722;28;20591;-84
2022/01/04 08:03:26;;;;;;;0.97;0.70;;;11.90;1.00;;;;;;5054966;28;20509;-84
2022/01/04 08:05:57;;;;;;;0.80;0.60;;;12.00;1.00;;;;;;5054949;28;20538;-83
2022/01/04 08:08:25;;;;;;;0.70;0.60;;;11.90;1.00;;;;;;5049055;28;20460;-83
2022/01/04 08:10:54;;;;;;;0.63;0.60;;;11.80;1.00;;;;;;5049432;28;20445;-83
2022/01/04 08:13:22;;;;;;;0.93;0.60;;;11.90;1.00;;;;;;5050708;28;20459;-84
2022/01/04 08:15:50;;;;;;;0.40;0.40;;;11.70;1.00;;;;;;5062281;28;20454;-82
2022/01/04 08:18:18;;;;;;;1.27;0.53;;;11.80;1.00;;;;;;5048808;28;20463;-83
2022/01/04 08:20:47;;;;;;;0.77;0.77;;;11.90;1.00;;;;;;5048027;28;20468;-83
2022/01/04 08:23:16;;;;;;;1.50;0.70;;;11.90;1.00;;;;;;5049964;28;20486;-84
2022/01/04 08:25:44;;;;;;;0.60;0.60;;;12.00;1.00;;;;;;5071638;28;20823;-83
2022/01/04 08:28:12;;;;;;;0.60;0.50;;;12.00;1.00;;;;;;5065531;28;20448;-83
2022/01/04 08:30:42;;;;;;;0.50;0.50;;;12.00;1.00;;;;;;5067426;28;20508;-83
2022/01/04 08:33:11;;;;;;;0.50;0.50;;;12.00;1.00;;;;;;5073355;28;20475;-83
2022/01/04 08:35:40;;;;;;;0.63;0.53;;;12.00;1.00;;;;;;5072703;28;20465;-83
2022/01/04 08:38:08;;;;;;;0.70;0.70;;;12.10;1.00;;;;;;5052049;28;20461;-83
2022/01/04 08:40:38;;;;;;;1.03;0.60;;;12.10;1.00;;;;;;5058445;28;20455;-83
2022/01/04 08:43:07;;;;;;;1.97;0.60;;;12.10;1.00;;;;;;5063721;28;20528;-84
2022/01/04 08:45:36;;;;;;;0.60;0.57;;;12.20;1.00;;;;;;5059031;28;20483;-83
2022/01/04 08:48:05;;;;;;;1.00;0.60;;;12.20;1.00;;;;;;5064000;28;20927;-84
2022/01/04 08:50:33;;;;;;;0.60;0.50;;;12.10;1.00;;;;;;5052741;28;20458;-83
2022/01/04 08:53:02;;;;;;;0.50;0.50;;;12.20;1.00;;;;;;5052786;28;20467;-84
2022/01/04 08:55:30;;;;;;;0.90;0.70;;;12.10;1.00;;;;;;5054234;28;20505;-84
2022/01/04 08:58:00;;;;;;;0.60;0.60;;;12.20;99.90;;;;;;5063266;28;20456;-84
2022/01/04 09:00:32;;;;;;;0.60;0.60;;;12.20;99.90;;;;;;5065792;28;20451;-84
2022/01/04 09:03:01;;;;;;;0.60;0.60;;;12.20;99.90;;;;;;5062973;28;20501;-84
2022/01/04 09:05:30;;;;;;;0.77;0.60;;;12.30;99.90;;;;;;5058871;28;20485;-83
2022/01/04 09:07:58;;;;;;;0.60;0.50;;;12.30;99.90;;;;;;5061216;28;20520;-84
2022/01/04 09:10:26;;;;;;;0.70;0.70;;;12.40;99.90;;;;;;5052266;28;20460;-83
2022/01/04 09:13:00;;;;;;;0.50;0.50;;;12.50;1.00;;;;;;5052017;28;20480;-83
2022/01/04 09:15:34;;;;;;;2.93;0.60;;;12.40;1.00;;;;;;5050831;28;20456;-83
2022/01/04 09:21:11;;;;;;;0.70;0.60;;;12.30;99.90;;;;;;5062669;28;20520;-84
2022/01/04 09:23:39;;;;;;;0.50;0.50;;;12.20;46.60;;;;;;5052672;28;20479;-83
2022/01/04 09:26:09;;;;;;;0.60;0.60;;;12.30;99.90;;;;;;5055926;28;21034;-82
2022/01/04 09:28:37;;;;;;;2.40;1.00;;;12.50;99.90;;;;;;5069105;28;20538;-83
2022/01/04 09:31:07;;;;;;;0.80;0.60;;;12.50;1.80;;;;;;5050130;28;20444;-83
2022/01/04 09:33:36;;;;;;;0.67;0.50;;;12.40;99.90;;;;;;5065983;28;20532;-84
2022/01/04 09:36:24;;;;;;;1.40;0.57;;;12.20;1.00;;;;;;5049673;28;20513;-84
2022/01/04 09:38:53;;;;;;;3.03;0.53;;;12.20;1.00;;;;;;5051471;28;20461;-83
2022/01/04 09:41:22;;;;;;;0.70;0.70;;;12.00;1.00;;;;;;5051450;28;20483;-84
2022/01/04 09:43:51;;;;;;;0.43;0.43;;;12.10;1.00;;;;;;5051668;28;20987;-84
2022/01/04 09:46:21;;;;;;;0.70;0.50;;;12.10;1.00;;;;;;5055585;28;20448;-83
2022/01/04 09:48:49;;;;;;;1.60;0.60;;;12.20;1.00;;;;;;5069530;28;20886;-83
2022/01/04 09:51:18;;;;;;;0.70;0.70;;;12.30;1.00;;;;;;5056572;28;20470;-83
2022/01/04 09:53:46;;;;;;;1.23;0.80;;;12.40;1.00;;;;;;5051320;28;20471;-83
2022/01/04 09:56:15;;;;;;;1.33;0.80;;;12.20;1.00;;;;;;5051230;28;20463;-83
2022/01/04 09:58:43;;;;;;;0.77;0.77;;;12.10;1.00;;;;;;5050568;28;20497;-83
2022/01/04 10:01:20;;;;;;;0.70;0.70;;;12.00;1.00;;;;;;5066149;28;20449;-83
2022/01/04 10:04:10;;;;;;;0.57;0.50;;;12.00;1.00;;;;;;5059008;28;21092;-84
2022/01/04 10:06:41;;;;;;;0.83;0.60;;;12.00;1.00;;;;;;5052803;28;20447;-84
2022/01/04 10:09:11;;;;;;;0.77;0.60;;;11.80;1.00;;;;;;5062532;28;20856;-83
2022/01/04 10:11:43;;;;;;;1.00;0.90;;;11.80;1.00;;;;;;5066834;28;20469;-84
2022/01/04 10:14:26;;;;;;;0.80;0.70;;;11.90;1.00;;;;;;5060914;28;20842;-84
2022/01/04 10:16:57;;;;;;;1.43;0.90;;;12.00;1.00;;;;;;5068543;28;20520;-84
2022/01/04 10:19:30;;;;;;;0.90;0.60;;;12.10;1.00;;;;;;5058456;28;20455;-83
2022/01/04 10:22:20;;;;;;;0.53;0.53;;;12.20;1.00;;;;;;5049729;28;20860;-82
2022/01/04 10:24:50;;;;;;;0.70;0.60;;;12.20;1.00;;;;;;5064358;28;20478;-84
2022/01/04 10:27:24;;;;;;;5.00;0.70;;;12.30;1.00;;;;;;5082231;28;21007;-83
2022/01/04 10:30:08;;;;;;;0.83;0.70;;;12.20;1.00;;;;;;5057775;28;20445;-83
2022/01/04 10:32:46;;;;;;;0.60;0.60;;;12.30;99.90;;;;;;5050608;28;21144;-83
2022/01/04 10:35:22;;;;;;;0.80;0.80;;;12.30;99.90;;;;;;5051072;28;20459;-84
2022/01/04 10:37:51;;;;;;;0.70;0.60;;;12.30;99.90;;;;;;5063440;28;20463;-83
2022/01/04 10:40:20;;;;;;;2.00;0.87;;;12.50;99.90;;;;;;5060859;28;20915;-84
2022/01/04 10:42:48;;;;;;;2.37;0.80;;;12.60;99.90;;;;;;5069793;28;20490;-83
2022/01/04 10:45:29;;;;;;;0.70;0.70;;;12.50;1.00;;;;;;5050487;28;20547;-83
2022/01/04 10:48:14;;;;;;;0.93;0.70;;;12.50;99.90;;;;;;5049261;28;20513;-83
2022/01/04 10:50:44;;;;;;;1.23;0.70;;;12.50;99.90;;;;;;5050136;28;20804;-83
2022/01/04 10:53:33;;;;;;;2.23;0.90;;;12.60;1.00;;;;;;5054338;28;20990;-84
2022/01/04 10:56:04;;;;;;;0.60;0.60;;;12.50;1.00;;;;;;5069033;28;20450;-83
2022/01/04 10:58:35;;;;;;;1.37;0.70;;;12.60;99.90;;;;;;5049524;28;20456;-83
2022/01/04 11:01:07;;;;;;;1.93;0.63;;;12.70;1.00;;;;;;5049982;28;20450;-84
2022/01/04 11:03:40;;;;;;;1.37;0.77;;;12.80;99.90;;;;;;5049506;28;20502;-84
2022/01/04 11:06:12;;;;;;;0.60;0.60;;;12.70;99.90;;;;;;5054374;28;20527;-83
2022/01/04 11:08:41;;;;;;;1.07;0.70;;;12.70;1.00;;;;;;5057584;28;20459;-83
2022/01/04 11:11:10;;;;;;;1.30;0.80;;;12.60;99.90;;;;;;5050150;28;20569;-84
2022/01/04 11:13:38;;;;;;;0.63;0.63;;;12.70;99.90;;;;;;5049811;28;20571;-83
2022/01/04 11:16:07;;;;;;;0.90;0.67;;;12.60;99.90;;;;;;5062766;28;20901;-84
2022/01/04 11:18:41;;;;;;;1.27;0.77;;;12.60;1.00;;;;;;5061450;28;20447;-84
2022/01/04 11:21:13;;;;;;;1.60;0.70;;;12.60;99.90;;;;;;5056428;28;20481;-84
2022/01/04 11:23:43;;;;;;;0.73;0.60;;;12.60;99.90;;;;;;5053488;28;20526;-84
2022/01/04 11:26:12;;;;;;;1.17;0.80;;;12.70;1.00;;;;;;5052987;28;20527;-83
2022/01/04 11:28:46;;;;;;;0.77;0.77;;;12.70;93.60;;;;;;5055246;28;21030;-83
2022/01/04 11:31:30;;;;;;;1.30;0.77;;;12.60;99.90;;;;;;5065516;28;20448;-84
2022/01/04 11:34:10;;;;;;;0.97;0.70;;;12.60;1.00;;;;;;5065968;28;20471;-83
2022/01/04 11:36:40;;;;;;;0.70;0.70;;;12.70;1.00;;;;;;5049561;28;20451;-84
2022/01/04 11:39:27;;;;;;;0.80;0.80;;;12.60;1.00;;;;;;5053425;28;20456;-84
2022/01/04 11:41:56;;;;;;;3.80;1.10;;;12.60;1.00;;;;;;5068934;28;21069;-83
2022/01/04 11:44:27;;;;;;;0.90;0.70;;;12.70;1.00;;;;;;5049880;28;20475;-85
2022/01/04 11:47:07;;;;;;;2.07;0.90;;;12.80;1.00;;;;;;5050145;28;20452;-83
2022/01/04 11:49:38;;;;;;;1.00;0.90;;;12.80;1.00;;;;;;5048590;28;20833;-83
2022/01/04 11:52:08;;;;;;;1.23;1.13;;;12.80;99.90;;;;;;5050731;28;20457;-83
2022/01/04 11:54:36;;;;;;;1.63;0.90;;;12.90;99.90;;;;;;5069355;28;20504;-83
2022/01/04 11:57:09;;;;;;;1.63;1.10;;;12.80;1.00;;;;;;5069066;28;20458;-84
2022/01/04 11:59:39;;;;;;;1.57;1.17;;;12.70;1.00;;;;;;5049430;28;20443;-83
2022/01/04 12:02:31;;;;;;;1.53;1.10;;;12.80;1.00;;;;;;5054240;28;20435;-84
2022/01/04 12:05:04;;;;;;;1.50;0.90;;;12.60;1.00;;;;;;5070486;28;20495;-84
2022/01/04 12:07:53;;;;;;;1.07;0.80;;;12.60;99.90;;;;;;5052821;28;20455;-83
2022/01/04 12:10:40;;;;;;;1.40;0.90;;;12.60;99.90;;;;;;5048608;28;20977;-83
2022/01/04 12:13:14;;;;;;;1.27;1.00;;;12.50;99.90;;;;;;5052861;28;21025;-83
2022/01/04 12:15:50;;;;;;;1.60;0.83;;;12.50;99.90;;;;;;5051054;28;20455;-82
2022/01/04 12:19:00;;;;;;;0.73;0.73;;;12.50;99.90;;;;;;5064367;28;20458;-83
2022/01/04 12:22:02;;;;;;;0.83;0.83;;;12.50;99.90;;;;;;5051881;28;20472;-84
2022/01/04 12:24:43;;;;;;;3.80;1.33;;;12.50;99.90;;;;;;5052814;28;20478;-82
2022/01/04 12:27:13;;;;;;;1.40;0.97;;;12.50;99.90;;;;;;5071983;28;20468;-84
2022/01/04 12:29:42;;;;;;;0.80;0.80;;;12.40;99.90;;;;;;5052070;28;20451;-83
2022/01/04 12:32:21;;;;;;;2.70;1.00;;;12.20;99.90;;;;;;5055341;28;20486;-83
2022/01/04 12:35:01;;;;;;;1.37;1.27;;;12.10;1.00;;;;;;5072809;28;20446;-84
2022/01/04 12:37:35;;;;;;;0.97;0.80;;;12.10;1.00;;;;;;5065517;28;20450;-84
2022/01/04 12:40:05;;;;;;;1.37;0.80;;;12.10;1.00;;;;;;5069478;28;20456;-83
2022/01/04 12:42:33;;;;;;;1.50;0.80;;;12.00;1.00;;;;;;5064753;28;20472;-84
2022/01/04 12:45:03;;;;;;;0.63;0.60;;;12.10;1.00;;;;;;5066728;28;20451;-83
2022/01/04 12:47:32;;;;;;;0.70;0.70;;;12.20;1.00;;;;;;5059880;28;20466;-83
2022/01/04 12:50:02;;;;;;;1.40;1.30;;;12.10;1.00;;;;;;5057996;28;20520;-83
2022/01/04 12:52:31;;;;;;;1.33;0.80;;;12.20;1.00;;;;;;5052288;28;20467;-84
2022/01/04 12:55:01;;;;;;;1.87;0.90;;;11.90;1.00;;;;;;5052509;28;20460;-84
2022/01/04 12:57:29;;;;;;;0.87;0.87;;;12.10;1.00;;;;;;5055924;28;20504;-83
2022/01/04 13:00:00;;;;;;;1.53;1.20;;;12.10;1.00;;;;;;5065221;28;20991;-84
2022/01/04 13:02:29;;;;;;;0.80;0.80;;;12.00;1.00;;;;;;5064011;28;20994;-83
2022/01/04 13:05:01;;;;;;;3.13;0.90;;;12.20;1.00;;;;;;5061963;28;20491;-84
2022/01/04 13:07:32;;;;;;;0.80;0.80;;;12.20;1.00;;;;;;5061652;28;20791;-84
2022/01/04 13:10:05;;;;;;;0.90;0.80;;;12.10;1.00;;;;;;5069385;28;21058;-83
2022/01/04 13:12:35;;;;;;;0.70;0.70;;;12.20;1.00;;;;;;5061890;28;20475;-83
2022/01/04 13:15:06;;;;;;;1.07;0.80;;;12.30;1.00;;;;;;5066261;28;20456;-83